sensor_id;sensor_type;location;lat;lon;timestamp;P1;durP1;ratioP1;P2;durP2;ratioP2
62149;SDS011;48134;53.586;10.610;2022-07-25T00:00:28;7.20;;;4.07;;
62149;SDS011;48134;53.586;10.610;2022-07-25T00:03:01;6.70;;;4.10;;
62149;SDS011;48134;53.586;10.610;2022-07-25T00:05:34;9.27;;;4.20;;
62149;SDS011;48134;53.586;10.610;2022-07-25T00:08:09;6.18;;;3.92;;
62149;SDS011;48134;53.586;10.610;2022-07-25T00:10:42;7.93;;;4.00;;
62149;SDS011;48134;53.586;10.610;2022-07-25T00:13:16;7.20;;;4.00;;
62149;SDS011;48134;53.586;10.610;2022-07-25T00:15:49;6.85;;;4.10;;
62149;SDS011;48134;53.586;10.610;2022-07-25T00:18:22;6.20;;;4.10;;
62149;SDS011;48134;53.586;10.610;2022-07-25T00:20:55;7.15;;;4.07;;
62149;SDS011;48134;53.586;10.610;2022-07-25T00:23:26;7.28;;;4.00;;
62149;SDS011;48134;53.586;10.610;2022-07-25T00:25:54;6.90;;;4.07;;
62149;SDS011;48134;53.586;10.610;2022-07-25T00:28:22;7.30;;;3.75;;
62149;SDS011;48134;53.586;10.610;2022-07-25T00:30:55;6.38;;;3.92;;
62149;SDS011;48134;53.586;10.610;2022-07-25T00:33:28;6.15;;;3.83;;
62149;SDS011;48134;53.586;10.610;2022-07-25T00:36:01;10.40;;;4.05;;
62149;SDS011;48134;53.586;10.610;2022-07-25T00:38:36;6.50;;;4.03;;
62149;SDS011;48134;53.586;10.610;2022-07-25T00:41:04;7.00;;;3.63;;
62149;SDS011;48134;53.586;10.610;2022-07-25T00:43:41;9.30;;;4.27;;
62149;SDS011;48134;53.586;10.610;2022-07-25T00:46:15;6.30;;;3.90;;
62149;SDS011;48134;53.586;10.610;2022-07-25T00:48:49;7.32;;;3.90;;
62149;SDS011;48134;53.586;10.610;2022-07-25T00:51:17;7.35;;;3.85;;
62149;SDS011;48134;53.586;10.610;2022-07-25T00:53:46;6.10;;;3.83;;
62149;SDS011;48134;53.586;10.610;2022-07-25T00:56:20;6.22;;;3.67;;
62149;SDS011;48134;53.586;10.610;2022-07-25T00:58:53;5.50;;;3.63;;
62149;SDS011;48134;53.586;10.610;2022-07-25T01:01:22;6.65;;;3.67;;
62149;SDS011;48134;53.586;10.610;2022-07-25T01:03:50;6.30;;;3.90;;
62149;SDS011;48134;53.586;10.610;2022-07-25T01:06:23;5.55;;;3.70;;
62149;SDS011;48134;53.586;10.610;2022-07-25T01:08:59;6.38;;;3.70;;
62149;SDS011;48134;53.586;10.610;2022-07-25T01:11:28;6.13;;;3.50;;
62149;SDS011;48134;53.586;10.610;2022-07-25T01:14:01;5.72;;;3.70;;
62149;SDS011;48134;53.586;10.610;2022-07-25T01:16:34;8.17;;;3.60;;
62149;SDS011;48134;53.586;10.610;2022-07-25T01:19:03;7.13;;;3.45;;
62149;SDS011;48134;53.586;10.610;2022-07-25T01:21:38;6.37;;;3.60;;
62149;SDS011;48134;53.586;10.610;2022-07-25T01:24:11;5.57;;;3.50;;
62149;SDS011;48134;53.586;10.610;2022-07-25T01:26:40;5.40;;;3.47;;
62149;SDS011;48134;53.586;10.610;2022-07-25T01:29:13;6.93;;;3.50;;
62149;SDS011;48134;53.586;10.610;2022-07-25T01:31:46;5.72;;;3.55;;
62149;SDS011;48134;53.586;10.610;2022-07-25T01:34:19;7.20;;;3.42;;
62149;SDS011;48134;53.586;10.610;2022-07-25T01:36:49;5.85;;;3.30;;
62149;SDS011;48134;53.586;10.610;2022-07-25T01:39:22;5.33;;;3.23;;
62149;SDS011;48134;53.586;10.610;2022-07-25T01:41:55;5.70;;;3.50;;
62149;SDS011;48134;53.586;10.610;2022-07-25T01:44:28;5.47;;;3.25;;
62149;SDS011;48134;53.586;10.610;2022-07-25T01:47:01;6.13;;;3.35;;
62149;SDS011;48134;53.586;10.610;2022-07-25T01:49:30;5.38;;;3.10;;
62149;SDS011;48134;53.586;10.610;2022-07-25T01:51:59;5.47;;;3.20;;
62149;SDS011;48134;53.586;10.610;2022-07-25T01:54:32;5.05;;;3.00;;
62149;SDS011;48134;53.586;10.610;2022-07-25T01:57:01;5.28;;;3.22;;
62149;SDS011;48134;53.586;10.610;2022-07-25T01:59:35;5.18;;;3.00;;
62149;SDS011;48134;53.586;10.610;2022-07-25T02:02:04;6.63;;;3.08;;
62149;SDS011;48134;53.586;10.610;2022-07-25T02:04:37;5.22;;;3.10;;
62149;SDS011;48134;53.586;10.610;2022-07-25T02:07:07;5.30;;;2.97;;
62149;SDS011;48134;53.586;10.610;2022-07-25T02:09:36;6.03;;;3.10;;
62149;SDS011;48134;53.586;10.610;2022-07-25T02:12:10;5.25;;;2.90;;
62149;SDS011;48134;53.586;10.610;2022-07-25T02:14:43;5.05;;;2.90;;
62149;SDS011;48134;53.586;10.610;2022-07-25T02:17:16;8.80;;;2.90;;
62149;SDS011;48134;53.586;10.610;2022-07-25T02:19:45;5.70;;;2.90;;
62149;SDS011;48134;53.586;10.610;2022-07-25T02:22:19;5.32;;;3.00;;
62149;SDS011;48134;53.586;10.610;2022-07-25T02:24:52;4.80;;;2.80;;
62149;SDS011;48134;53.586;10.610;2022-07-25T02:27:25;5.20;;;2.80;;
62149;SDS011;48134;53.586;10.610;2022-07-25T02:29:58;4.85;;;2.80;;
62149;SDS011;48134;53.586;10.610;2022-07-25T02:32:31;4.97;;;2.60;;
62149;SDS011;48134;53.586;10.610;2022-07-25T02:35:05;4.53;;;2.67;;
62149;SDS011;48134;53.586;10.610;2022-07-25T02:37:41;4.82;;;2.63;;
62149;SDS011;48134;53.586;10.610;2022-07-25T02:40:14;5.30;;;2.60;;
62149;SDS011;48134;53.586;10.610;2022-07-25T02:42:47;5.10;;;2.78;;
62149;SDS011;48134;53.586;10.610;2022-07-25T02:45:20;4.10;;;2.53;;
62149;SDS011;48134;53.586;10.610;2022-07-25T02:47:53;4.82;;;2.50;;
62149;SDS011;48134;53.586;10.610;2022-07-25T02:50:21;5.05;;;2.60;;
62149;SDS011;48134;53.586;10.610;2022-07-25T02:52:51;4.97;;;2.60;;
62149;SDS011;48134;53.586;10.610;2022-07-25T02:55:19;5.18;;;2.72;;
62149;SDS011;48134;53.586;10.610;2022-07-25T02:57:47;4.95;;;2.63;;
62149;SDS011;48134;53.586;10.610;2022-07-25T03:00:21;6.25;;;2.58;;
62149;SDS011;48134;53.586;10.610;2022-07-25T03:02:50;4.37;;;2.60;;
62149;SDS011;48134;53.586;10.610;2022-07-25T03:05:23;5.25;;;2.55;;
62149;SDS011;48134;53.586;10.610;2022-07-25T03:07:58;5.05;;;2.60;;
62149;SDS011;48134;53.586;10.610;2022-07-25T03:10:26;4.50;;;2.60;;
62149;SDS011;48134;53.586;10.610;2022-07-25T03:12:59;6.18;;;2.63;;
62149;SDS011;48134;53.586;10.610;2022-07-25T03:15:32;4.25;;;2.50;;
62149;SDS011;48134;53.586;10.610;2022-07-25T03:18:01;4.22;;;2.50;;
62149;SDS011;48134;53.586;10.610;2022-07-25T03:20:34;4.47;;;2.50;;
62149;SDS011;48134;53.586;10.610;2022-07-25T03:23:08;4.40;;;2.38;;
62149;SDS011;48134;53.586;10.610;2022-07-25T03:25:41;4.53;;;2.42;;
62149;SDS011;48134;53.586;10.610;2022-07-25T03:28:14;4.40;;;2.33;;
62149;SDS011;48134;53.586;10.610;2022-07-25T03:30:43;4.72;;;2.35;;
62149;SDS011;48134;53.586;10.610;2022-07-25T03:33:11;3.70;;;2.28;;
62149;SDS011;48134;53.586;10.610;2022-07-25T03:35:39;4.15;;;2.25;;
62149;SDS011;48134;53.586;10.610;2022-07-25T03:38:14;4.28;;;2.30;;
62149;SDS011;48134;53.586;10.610;2022-07-25T03:40:42;5.73;;;2.40;;
62149;SDS011;48134;53.586;10.610;2022-07-25T03:43:10;4.03;;;2.40;;
62149;SDS011;48134;53.586;10.610;2022-07-25T03:45:43;3.70;;;2.28;;
62149;SDS011;48134;53.586;10.610;2022-07-25T03:48:17;4.10;;;2.30;;
62149;SDS011;48134;53.586;10.610;2022-07-25T03:50:45;4.47;;;2.40;;
62149;SDS011;48134;53.586;10.610;2022-07-25T03:53:19;4.32;;;2.13;;
62149;SDS011;48134;53.586;10.610;2022-07-25T03:55:48;3.70;;;2.20;;
62149;SDS011;48134;53.586;10.610;2022-07-25T03:58:21;4.07;;;2.20;;
62149;SDS011;48134;53.586;10.610;2022-07-25T04:00:54;3.78;;;2.45;;
62149;SDS011;48134;53.586;10.610;2022-07-25T04:03:22;6.18;;;2.28;;
62149;SDS011;48134;53.586;10.610;2022-07-25T04:05:56;4.43;;;2.37;;
62149;SDS011;48134;53.586;10.610;2022-07-25T04:08:30;4.53;;;2.22;;
62149;SDS011;48134;53.586;10.610;2022-07-25T04:10:59;3.75;;;2.30;;
62149;SDS011;48134;53.586;10.610;2022-07-25T04:13:32;3.65;;;2.20;;
62149;SDS011;48134;53.586;10.610;2022-07-25T04:16:00;5.50;;;2.45;;
62149;SDS011;48134;53.586;10.610;2022-07-25T04:18:28;5.37;;;2.43;;
62149;SDS011;48134;53.586;10.610;2022-07-25T04:21:02;4.78;;;2.50;;
62149;SDS011;48134;53.586;10.610;2022-07-25T04:23:37;3.90;;;2.30;;
62149;SDS011;48134;53.586;10.610;2022-07-25T04:26:05;4.45;;;2.40;;
62149;SDS011;48134;53.586;10.610;2022-07-25T04:28:33;4.00;;;2.40;;
62149;SDS011;48134;53.586;10.610;2022-07-25T04:31:07;3.60;;;2.30;;
62149;SDS011;48134;53.586;10.610;2022-07-25T04:33:35;4.35;;;2.30;;
62149;SDS011;48134;53.586;10.610;2022-07-25T04:36:08;4.60;;;2.30;;
62149;SDS011;48134;53.586;10.610;2022-07-25T04:38:43;4.78;;;2.13;;
62149;SDS011;48134;53.586;10.610;2022-07-25T04:41:11;3.63;;;2.22;;
62149;SDS011;48134;53.586;10.610;2022-07-25T04:43:45;3.60;;;2.15;;
62149;SDS011;48134;53.586;10.610;2022-07-25T04:46:16;3.10;;;2.00;;
62149;SDS011;48134;53.586;10.610;2022-07-25T04:48:45;4.03;;;2.30;;
62149;SDS011;48134;53.586;10.610;2022-07-25T04:51:18;3.95;;;2.22;;
62149;SDS011;48134;53.586;10.610;2022-07-25T04:53:53;3.90;;;2.20;;
62149;SDS011;48134;53.586;10.610;2022-07-25T04:56:26;3.77;;;2.20;;
62149;SDS011;48134;53.586;10.610;2022-07-25T04:58:59;3.22;;;2.22;;
62149;SDS011;48134;53.586;10.610;2022-07-25T05:01:27;4.68;;;2.22;;
62149;SDS011;48134;53.586;10.610;2022-07-25T05:03:55;3.83;;;2.20;;
62149;SDS011;48134;53.586;10.610;2022-07-25T05:06:28;5.20;;;2.33;;
62149;SDS011;48134;53.586;10.610;2022-07-25T05:09:03;4.50;;;2.30;;
62149;SDS011;48134;53.586;10.610;2022-07-25T05:11:36;3.97;;;2.40;;
62149;SDS011;48134;53.586;10.610;2022-07-25T05:14:04;3.00;;;1.92;;
62149;SDS011;48134;53.586;10.610;2022-07-25T05:16:38;3.97;;;2.22;;
62149;SDS011;48134;53.586;10.610;2022-07-25T05:19:06;3.22;;;2.00;;
62149;SDS011;48134;53.586;10.610;2022-07-25T05:21:40;3.55;;;2.10;;
62149;SDS011;48134;53.586;10.610;2022-07-25T05:24:14;4.07;;;2.00;;
62149;SDS011;48134;53.586;10.610;2022-07-25T05:26:48;3.53;;;2.00;;
62149;SDS011;48134;53.586;10.610;2022-07-25T05:29:21;3.25;;;2.10;;
62149;SDS011;48134;53.586;10.610;2022-07-25T05:31:54;3.73;;;2.10;;
62149;SDS011;48134;53.586;10.610;2022-07-25T05:34:27;4.15;;;2.05;;
62149;SDS011;48134;53.586;10.610;2022-07-25T05:37:01;3.55;;;1.95;;
62149;SDS011;48134;53.586;10.610;2022-07-25T05:39:35;3.50;;;2.03;;
62149;SDS011;48134;53.586;10.610;2022-07-25T05:42:10;7.25;;;2.42;;
62149;SDS011;48134;53.586;10.610;2022-07-25T05:44:44;4.15;;;2.00;;
62149;SDS011;48134;53.586;10.610;2022-07-25T05:47:17;2.72;;;1.70;;
62149;SDS011;48134;53.586;10.610;2022-07-25T05:49:45;2.80;;;1.80;;
62149;SDS011;48134;53.586;10.610;2022-07-25T05:52:18;4.57;;;2.00;;
62149;SDS011;48134;53.586;10.610;2022-07-25T05:54:53;2.77;;;1.83;;
62149;SDS011;48134;53.586;10.610;2022-07-25T05:57:26;3.45;;;2.10;;
62149;SDS011;48134;53.586;10.610;2022-07-25T05:59:59;3.92;;;2.17;;
62149;SDS011;48134;53.586;10.610;2022-07-25T06:02:30;3.27;;;2.20;;
62149;SDS011;48134;53.586;10.610;2022-07-25T06:04:58;3.73;;;2.00;;
62149;SDS011;48134;53.586;10.610;2022-07-25T06:07:31;3.88;;;2.20;;
62149;SDS011;48134;53.586;10.610;2022-07-25T06:10:06;5.22;;;1.90;;
62149;SDS011;48134;53.586;10.610;2022-07-25T06:12:34;3.40;;;2.13;;
62149;SDS011;48134;53.586;10.610;2022-07-25T06:15:07;3.38;;;2.03;;
62149;SDS011;48134;53.586;10.610;2022-07-25T06:17:41;3.28;;;2.10;;
62149;SDS011;48134;53.586;10.610;2022-07-25T06:20:14;3.10;;;2.00;;
62149;SDS011;48134;53.586;10.610;2022-07-25T06:22:47;3.13;;;2.10;;
62149;SDS011;48134;53.586;10.610;2022-07-25T06:25:22;3.65;;;2.20;;
62149;SDS011;48134;53.586;10.610;2022-07-25T06:27:50;6.35;;;2.35;;
62149;SDS011;48134;53.586;10.610;2022-07-25T06:30:23;4.85;;;2.38;;
62149;SDS011;48134;53.586;10.610;2022-07-25T06:32:57;7.20;;;2.05;;
62149;SDS011;48134;53.586;10.610;2022-07-25T06:35:30;4.15;;;2.22;;
62149;SDS011;48134;53.586;10.610;2022-07-25T06:38:03;4.75;;;2.20;;
62149;SDS011;48134;53.586;10.610;2022-07-25T06:40:38;4.30;;;2.10;;
62149;SDS011;48134;53.586;10.610;2022-07-25T06:43:11;3.58;;;2.17;;
62149;SDS011;48134;53.586;10.610;2022-07-25T06:45:39;3.58;;;2.10;;
62149;SDS011;48134;53.586;10.610;2022-07-25T06:48:17;4.60;;;2.10;;
62149;SDS011;48134;53.586;10.610;2022-07-25T06:50:51;4.03;;;2.40;;
62149;SDS011;48134;53.586;10.610;2022-07-25T06:53:24;3.60;;;2.20;;
62149;SDS011;48134;53.586;10.610;2022-07-25T06:55:59;3.80;;;2.00;;
62149;SDS011;48134;53.586;10.610;2022-07-25T06:58:32;5.15;;;2.13;;
62149;SDS011;48134;53.586;10.610;2022-07-25T07:01:05;4.50;;;2.10;;
62149;SDS011;48134;53.586;10.610;2022-07-25T07:03:38;3.85;;;2.17;;
62149;SDS011;48134;53.586;10.610;2022-07-25T07:06:12;6.15;;;2.38;;
62149;SDS011;48134;53.586;10.610;2022-07-25T07:08:40;3.78;;;2.30;;
62149;SDS011;48134;53.586;10.610;2022-07-25T07:11:15;3.30;;;2.03;;
62149;SDS011;48134;53.586;10.610;2022-07-25T07:13:43;3.70;;;2.10;;
62149;SDS011;48134;53.586;10.610;2022-07-25T07:16:16;4.57;;;2.30;;
62149;SDS011;48134;53.586;10.610;2022-07-25T07:18:44;5.47;;;2.30;;
62149;SDS011;48134;53.586;10.610;2022-07-25T07:21:17;6.00;;;2.10;;
62149;SDS011;48134;53.586;10.610;2022-07-25T07:23:50;4.57;;;2.30;;
62149;SDS011;48134;53.586;10.610;2022-07-25T07:26:25;4.40;;;2.17;;
62149;SDS011;48134;53.586;10.610;2022-07-25T07:28:58;4.60;;;2.13;;
62149;SDS011;48134;53.586;10.610;2022-07-25T07:31:33;7.38;;;2.50;;
62149;SDS011;48134;53.586;10.610;2022-07-25T07:34:06;5.03;;;2.35;;
62149;SDS011;48134;53.586;10.610;2022-07-25T07:36:39;3.53;;;2.22;;
62149;SDS011;48134;53.586;10.610;2022-07-25T07:39:12;3.80;;;2.17;;
62149;SDS011;48134;53.586;10.610;2022-07-25T07:41:43;4.10;;;2.33;;
62149;SDS011;48134;53.586;10.610;2022-07-25T07:44:16;3.88;;;2.40;;
62149;SDS011;48134;53.586;10.610;2022-07-25T07:46:50;4.35;;;2.35;;
62149;SDS011;48134;53.586;10.610;2022-07-25T07:49:23;3.78;;;2.28;;
62149;SDS011;48134;53.586;10.610;2022-07-25T07:51:56;5.70;;;2.70;;
62149;SDS011;48134;53.586;10.610;2022-07-25T07:54:24;4.00;;;2.40;;
62149;SDS011;48134;53.586;10.610;2022-07-25T07:57:16;4.37;;;2.33;;
62149;SDS011;48134;53.586;10.610;2022-07-25T07:59:49;5.45;;;2.55;;
62149;SDS011;48134;53.586;10.610;2022-07-25T08:02:22;4.38;;;2.50;;
62149;SDS011;48134;53.586;10.610;2022-07-25T08:04:55;4.22;;;2.50;;
62149;SDS011;48134;53.586;10.610;2022-07-25T08:07:28;4.25;;;2.50;;
62149;SDS011;48134;53.586;10.610;2022-07-25T08:09:57;6.50;;;2.67;;
62149;SDS011;48134;53.586;10.610;2022-07-25T08:12:26;5.03;;;2.83;;
62149;SDS011;48134;53.586;10.610;2022-07-25T08:14:55;6.03;;;2.88;;
62149;SDS011;48134;53.586;10.610;2022-07-25T08:17:23;4.95;;;2.88;;
62149;SDS011;48134;53.586;10.610;2022-07-25T08:19:56;4.93;;;2.63;;
62149;SDS011;48134;53.586;10.610;2022-07-25T08:22:33;4.60;;;2.58;;
62149;SDS011;48134;53.586;10.610;2022-07-25T08:25:02;4.85;;;2.83;;
62149;SDS011;48134;53.586;10.610;2022-07-25T08:27:38;5.03;;;2.90;;
62149;SDS011;48134;53.586;10.610;2022-07-25T08:30:14;5.63;;;2.90;;
62149;SDS011;48134;53.586;10.610;2022-07-25T08:32:48;7.57;;;2.80;;
62149;SDS011;48134;53.586;10.610;2022-07-25T08:35:18;5.85;;;2.58;;
62149;SDS011;48134;53.586;10.610;2022-07-25T08:37:52;5.75;;;3.03;;
62149;SDS011;48134;53.586;10.610;2022-07-25T08:40:27;5.30;;;2.90;;
62149;SDS011;48134;53.586;10.610;2022-07-25T08:43:03;5.07;;;3.10;;
62149;SDS011;48134;53.586;10.610;2022-07-25T08:45:36;5.50;;;3.15;;
62149;SDS011;48134;53.586;10.610;2022-07-25T08:48:16;11.80;;;5.68;;
62149;SDS011;48134;53.586;10.610;2022-07-25T08:50:45;7.93;;;3.65;;
62149;SDS011;48134;53.586;10.610;2022-07-25T08:53:15;6.10;;;3.30;;
62149;SDS011;48134;53.586;10.610;2022-07-25T08:55:50;7.50;;;4.63;;
62149;SDS011;48134;53.586;10.610;2022-07-25T08:58:19;6.90;;;3.80;;
62149;SDS011;48134;53.586;10.610;2022-07-25T09:00:52;6.10;;;3.50;;
62149;SDS011;48134;53.586;10.610;2022-07-25T09:03:25;6.23;;;3.57;;
62149;SDS011;48134;53.586;10.610;2022-07-25T09:05:58;5.67;;;3.40;;
62149;SDS011;48134;53.586;10.610;2022-07-25T09:08:32;7.70;;;3.60;;
62149;SDS011;48134;53.586;10.610;2022-07-25T09:11:05;6.43;;;3.75;;
62149;SDS011;48134;53.586;10.610;2022-07-25T09:13:40;6.80;;;3.80;;
62149;SDS011;48134;53.586;10.610;2022-07-25T09:16:08;5.93;;;3.78;;
62149;SDS011;48134;53.586;10.610;2022-07-25T09:18:36;5.93;;;3.50;;
62149;SDS011;48134;53.586;10.610;2022-07-25T09:21:12;6.25;;;3.83;;
62149;SDS011;48134;53.586;10.610;2022-07-25T09:23:45;7.03;;;3.72;;
62149;SDS011;48134;53.586;10.610;2022-07-25T09:26:18;5.78;;;3.50;;
62149;SDS011;48134;53.586;10.610;2022-07-25T09:28:53;5.97;;;3.80;;
62149;SDS011;48134;53.586;10.610;2022-07-25T09:31:30;7.77;;;3.80;;
62149;SDS011;48134;53.586;10.610;2022-07-25T09:34:05;6.47;;;3.70;;
62149;SDS011;48134;53.586;10.610;2022-07-25T09:36:49;7.88;;;3.75;;
62149;SDS011;48134;53.586;10.610;2022-07-25T09:39:18;6.78;;;3.85;;
62149;SDS011;48134;53.586;10.610;2022-07-25T09:41:51;6.40;;;3.45;;
62149;SDS011;48134;53.586;10.610;2022-07-25T09:44:21;6.47;;;4.00;;
62149;SDS011;48134;53.586;10.610;2022-07-25T09:46:50;6.00;;;3.90;;
62149;SDS011;48134;53.586;10.610;2022-07-25T09:49:23;7.20;;;3.90;;
62149;SDS011;48134;53.586;10.610;2022-07-25T09:51:57;6.13;;;3.80;;
62149;SDS011;48134;53.586;10.610;2022-07-25T09:54:30;8.07;;;4.03;;
62149;SDS011;48134;53.586;10.610;2022-07-25T09:57:05;7.30;;;3.78;;
62149;SDS011;48134;53.586;10.610;2022-07-25T09:59:40;6.45;;;3.92;;
62149;SDS011;48134;53.586;10.610;2022-07-25T10:02:16;5.30;;;3.42;;
62149;SDS011;48134;53.586;10.610;2022-07-25T10:04:59;6.10;;;3.75;;
62149;SDS011;48134;53.586;10.610;2022-07-25T10:07:42;12.13;;;8.32;;
62149;SDS011;48134;53.586;10.610;2022-07-25T10:10:19;5.60;;;3.72;;
62149;SDS011;48134;53.586;10.610;2022-07-25T10:12:59;7.60;;;3.88;;
62149;SDS011;48134;53.586;10.610;2022-07-25T10:15:43;8.60;;;4.00;;
62149;SDS011;48134;53.586;10.610;2022-07-25T10:18:18;8.20;;;3.70;;
62149;SDS011;48134;53.586;10.610;2022-07-25T10:20:53;6.55;;;3.85;;
62149;SDS011;48134;53.586;10.610;2022-07-25T10:23:27;7.70;;;3.60;;
62149;SDS011;48134;53.586;10.610;2022-07-25T10:26:02;5.50;;;3.60;;
62149;SDS011;48134;53.586;10.610;2022-07-25T10:28:40;7.45;;;3.50;;
62149;SDS011;48134;53.586;10.610;2022-07-25T10:31:18;7.25;;;3.47;;
62149;SDS011;48134;53.586;10.610;2022-07-25T10:33:54;6.28;;;3.60;;
62149;SDS011;48134;53.586;10.610;2022-07-25T10:36:40;7.03;;;3.75;;
62149;SDS011;48134;53.586;10.610;2022-07-25T10:39:15;5.40;;;3.63;;
62149;SDS011;48134;53.586;10.610;2022-07-25T10:41:50;6.40;;;3.80;;
62149;SDS011;48134;53.586;10.610;2022-07-25T10:44:26;7.25;;;3.80;;
62149;SDS011;48134;53.586;10.610;2022-07-25T10:47:05;5.95;;;3.65;;
62149;SDS011;48134;53.586;10.610;2022-07-25T10:49:40;5.88;;;3.58;;
62149;SDS011;48134;53.586;10.610;2022-07-25T10:52:16;7.93;;;4.88;;
62149;SDS011;48134;53.586;10.610;2022-07-25T10:54:51;5.70;;;3.53;;
62149;SDS011;48134;53.586;10.610;2022-07-25T10:57:26;6.20;;;3.80;;
62149;SDS011;48134;53.586;10.610;2022-07-25T11:00:02;6.35;;;3.83;;
62149;SDS011;48134;53.586;10.610;2022-07-25T11:02:33;6.30;;;3.80;;
62149;SDS011;48134;53.586;10.610;2022-07-25T11:05:07;7.93;;;4.83;;
62149;SDS011;48134;53.586;10.610;2022-07-25T11:07:48;8.85;;;4.55;;
62149;SDS011;48134;53.586;10.610;2022-07-25T11:10:26;5.80;;;3.63;;
62149;SDS011;48134;53.586;10.610;2022-07-25T11:12:59;7.80;;;4.00;;
62149;SDS011;48134;53.586;10.610;2022-07-25T11:15:28;7.30;;;3.80;;
62149;SDS011;48134;53.586;10.610;2022-07-25T11:18:02;5.80;;;3.55;;
62149;SDS011;48134;53.586;10.610;2022-07-25T11:20:36;6.22;;;3.75;;
62149;SDS011;48134;53.586;10.610;2022-07-25T11:23:09;6.05;;;3.83;;
62149;SDS011;48134;53.586;10.610;2022-07-25T11:25:42;6.18;;;3.40;;
62149;SDS011;48134;53.586;10.610;2022-07-25T11:28:15;6.95;;;3.80;;
62149;SDS011;48134;53.586;10.610;2022-07-25T11:30:48;6.97;;;4.05;;
62149;SDS011;48134;53.586;10.610;2022-07-25T11:33:23;5.68;;;3.67;;
62149;SDS011;48134;53.586;10.610;2022-07-25T11:35:56;5.75;;;3.60;;
62149;SDS011;48134;53.586;10.610;2022-07-25T11:38:30;6.07;;;3.60;;
62149;SDS011;48134;53.586;10.610;2022-07-25T11:41:03;6.32;;;3.75;;
62149;SDS011;48134;53.586;10.610;2022-07-25T11:43:37;7.00;;;3.65;;
62149;SDS011;48134;53.586;10.610;2022-07-25T11:46:20;6.40;;;3.77;;
62149;SDS011;48134;53.586;10.610;2022-07-25T11:49:02;6.50;;;3.78;;
62149;SDS011;48134;53.586;10.610;2022-07-25T11:51:38;6.25;;;3.58;;
62149;SDS011;48134;53.586;10.610;2022-07-25T11:54:12;5.93;;;3.30;;
62149;SDS011;48134;53.586;10.610;2022-07-25T11:56:42;5.95;;;3.42;;
62149;SDS011;48134;53.586;10.610;2022-07-25T11:59:17;6.75;;;3.85;;
62149;SDS011;48134;53.586;10.610;2022-07-25T12:01:46;7.97;;;3.60;;
62149;SDS011;48134;53.586;10.610;2022-07-25T12:04:20;8.05;;;3.83;;
62149;SDS011;48134;53.586;10.610;2022-07-25T12:07:01;6.03;;;3.45;;
62149;SDS011;48134;53.586;10.610;2022-07-25T12:09:31;6.03;;;3.60;;
62149;SDS011;48134;53.586;10.610;2022-07-25T12:12:04;6.70;;;3.60;;
62149;SDS011;48134;53.586;10.610;2022-07-25T12:14:41;6.05;;;3.50;;
62149;SDS011;48134;53.586;10.610;2022-07-25T12:17:14;6.53;;;3.60;;
62149;SDS011;48134;53.586;10.610;2022-07-25T12:19:49;7.53;;;3.75;;
62149;SDS011;48134;53.586;10.610;2022-07-25T12:22:22;6.78;;;3.63;;
62149;SDS011;48134;53.586;10.610;2022-07-25T12:24:50;5.67;;;3.47;;
62149;SDS011;48134;53.586;10.610;2022-07-25T12:27:18;5.95;;;3.45;;
62149;SDS011;48134;53.586;10.610;2022-07-25T12:29:47;7.68;;;4.70;;
62149;SDS011;48134;53.586;10.610;2022-07-25T12:32:15;5.28;;;3.40;;
62149;SDS011;48134;53.586;10.610;2022-07-25T12:34:50;8.75;;;6.18;;
62149;SDS011;48134;53.586;10.610;2022-07-25T12:37:23;6.28;;;3.60;;
62149;SDS011;48134;53.586;10.610;2022-07-25T12:39:52;7.27;;;4.00;;
62149;SDS011;48134;53.586;10.610;2022-07-25T12:42:26;5.28;;;3.40;;
62149;SDS011;48134;53.586;10.610;2022-07-25T12:45:00;6.78;;;3.50;;
62149;SDS011;48134;53.586;10.610;2022-07-25T12:47:28;5.05;;;3.38;;
62149;SDS011;48134;53.586;10.610;2022-07-25T12:49:58;6.70;;;3.47;;
62149;SDS011;48134;53.586;10.610;2022-07-25T12:52:32;6.00;;;3.58;;
62149;SDS011;48134;53.586;10.610;2022-07-25T12:55:10;5.25;;;3.30;;
62149;SDS011;48134;53.586;10.610;2022-07-25T12:57:44;4.93;;;3.40;;
62149;SDS011;48134;53.586;10.610;2022-07-25T13:00:18;6.35;;;3.38;;
62149;SDS011;48134;53.586;10.610;2022-07-25T13:02:53;5.03;;;3.33;;
62149;SDS011;48134;53.586;10.610;2022-07-25T13:05:23;5.30;;;3.40;;
62149;SDS011;48134;53.586;10.610;2022-07-25T13:07:57;5.57;;;3.45;;
62149;SDS011;48134;53.586;10.610;2022-07-25T13:10:25;5.38;;;3.40;;
62149;SDS011;48134;53.586;10.610;2022-07-25T13:12:58;7.72;;;3.50;;
62149;SDS011;48134;53.586;10.610;2022-07-25T13:15:32;7.75;;;3.47;;
62149;SDS011;48134;53.586;10.610;2022-07-25T13:18:06;6.78;;;3.67;;
62149;SDS011;48134;53.586;10.610;2022-07-25T13:20:41;5.60;;;3.30;;
62149;SDS011;48134;53.586;10.610;2022-07-25T13:23:09;5.60;;;3.33;;
62149;SDS011;48134;53.586;10.610;2022-07-25T13:25:43;6.40;;;3.60;;
62149;SDS011;48134;53.586;10.610;2022-07-25T13:28:16;7.03;;;3.53;;
62149;SDS011;48134;53.586;10.610;2022-07-25T13:30:49;7.13;;;3.47;;
62149;SDS011;48134;53.586;10.610;2022-07-25T13:33:22;5.75;;;3.58;;
62149;SDS011;48134;53.586;10.610;2022-07-25T13:35:52;5.70;;;3.40;;
62149;SDS011;48134;53.586;10.610;2022-07-25T13:38:20;5.85;;;3.20;;
62149;SDS011;48134;53.586;10.610;2022-07-25T13:40:53;8.35;;;5.25;;
62149;SDS011;48134;53.586;10.610;2022-07-25T13:43:22;6.43;;;3.47;;
62149;SDS011;48134;53.586;10.610;2022-07-25T13:45:56;5.63;;;3.35;;
62149;SDS011;48134;53.586;10.610;2022-07-25T13:48:24;6.85;;;3.28;;
62149;SDS011;48134;53.586;10.610;2022-07-25T13:50:59;6.70;;;3.40;;
62149;SDS011;48134;53.586;10.610;2022-07-25T13:53:32;5.88;;;3.50;;
62149;SDS011;48134;53.586;10.610;2022-07-25T13:56:05;6.55;;;3.45;;
62149;SDS011;48134;53.586;10.610;2022-07-25T13:58:34;5.90;;;3.40;;
62149;SDS011;48134;53.586;10.610;2022-07-25T14:01:02;5.60;;;3.70;;
62149;SDS011;48134;53.586;10.610;2022-07-25T14:03:36;7.85;;;3.70;;
62149;SDS011;48134;53.586;10.610;2022-07-25T14:06:12;9.18;;;3.70;;
62149;SDS011;48134;53.586;10.610;2022-07-25T14:08:41;6.43;;;3.65;;
62149;SDS011;48134;53.586;10.610;2022-07-25T14:11:14;6.45;;;3.50;;
62149;SDS011;48134;53.586;10.610;2022-07-25T14:13:42;5.57;;;3.45;;
62149;SDS011;48134;53.586;10.610;2022-07-25T14:16:16;6.03;;;3.70;;
62149;SDS011;48134;53.586;10.610;2022-07-25T14:18:45;5.57;;;3.33;;
62149;SDS011;48134;53.586;10.610;2022-07-25T14:21:15;7.45;;;3.65;;
62149;SDS011;48134;53.586;10.610;2022-07-25T14:23:48;6.67;;;3.40;;
62149;SDS011;48134;53.586;10.610;2022-07-25T14:26:22;5.32;;;3.42;;
62149;SDS011;48134;53.586;10.610;2022-07-25T14:28:51;6.50;;;3.60;;
62149;SDS011;48134;53.586;10.610;2022-07-25T14:31:20;7.60;;;3.40;;
62149;SDS011;48134;53.586;10.610;2022-07-25T14:33:49;4.97;;;3.42;;
62149;SDS011;48134;53.586;10.610;2022-07-25T14:36:24;6.60;;;3.55;;
62149;SDS011;48134;53.586;10.610;2022-07-25T14:38:57;7.70;;;3.53;;
62149;SDS011;48134;53.586;10.610;2022-07-25T14:41:30;6.90;;;3.50;;
62149;SDS011;48134;53.586;10.610;2022-07-25T14:43:59;6.43;;;3.50;;
62149;SDS011;48134;53.586;10.610;2022-07-25T14:46:27;6.20;;;3.60;;
62149;SDS011;48134;53.586;10.610;2022-07-25T14:49:00;5.63;;;3.70;;
62149;SDS011;48134;53.586;10.610;2022-07-25T14:51:35;7.30;;;3.60;;
62149;SDS011;48134;53.586;10.610;2022-07-25T14:54:03;6.10;;;3.78;;
62149;SDS011;48134;53.586;10.610;2022-07-25T14:56:36;5.07;;;3.40;;
62149;SDS011;48134;53.586;10.610;2022-07-25T14:59:10;6.13;;;3.53;;
62149;SDS011;48134;53.586;10.610;2022-07-25T15:01:43;6.57;;;3.53;;
62149;SDS011;48134;53.586;10.610;2022-07-25T15:04:12;7.63;;;3.55;;